createdAt,value
2018-11-01T00:01:18.604Z,4.70
2018-11-01T00:03:45.707Z,4.60
2018-11-01T00:06:12.780Z,4.63
2018-11-01T00:08:39.880Z,5.20
2018-11-01T00:11:06.960Z,5.53
2018-11-01T00:13:34.090Z,7.73
2018-11-01T00:16:01.176Z,7.17
2018-11-01T00:18:28.248Z,5.13
2018-11-01T00:20:55.348Z,5.07
2018-11-01T00:23:22.462Z,5.07
2018-11-01T00:25:49.545Z,5.47
2018-11-01T00:28:16.653Z,6.27
2018-11-01T00:30:43.744Z,6.80
2018-11-01T00:33:10.828Z,6.30
2018-11-01T00:35:37.912Z,5.93
2018-11-01T00:38:05.322Z,5.07
2018-11-01T00:40:32.404Z,4.90
2018-11-01T00:42:59.497Z,5.63
2018-11-01T00:45:26.584Z,4.27
2018-11-01T00:47:53.667Z,5.47
2018-11-01T00:50:20.754Z,7.00
2018-11-01T00:52:47.836Z,5.37
2018-11-01T00:55:14.940Z,5.03
2018-11-01T00:57:42.425Z,4.97
2018-11-01T01:00:11.688Z,7.33
2018-11-01T01:02:38.904Z,5.67
2018-11-01T01:05:07.448Z,6.63
2018-11-01T01:07:34.520Z,10.90
2018-11-01T01:10:01.619Z,5.40
2018-11-01T01:12:28.734Z,5.30
2018-11-01T01:14:55.852Z,5.07
2018-11-01T01:17:22.928Z,5.90
2018-11-01T01:19:50.012Z,6.33
2018-11-01T01:22:17.105Z,5.40
2018-11-01T01:24:44.192Z,6.40
2018-11-01T01:27:11.264Z,6.80
2018-11-01T01:29:38.353Z,5.33
2018-11-01T01:32:05.460Z,6.07
2018-11-01T01:34:32.568Z,8.00
2018-11-01T01:36:59.632Z,6.00
2018-11-01T01:39:26.726Z,6.83
2018-11-01T01:41:53.804Z,6.37
2018-11-01T01:44:20.919Z,5.93
2018-11-01T01:46:48.016Z,7.40
2018-11-01T01:49:15.104Z,5.43
2018-11-01T01:51:42.200Z,7.77
2018-11-01T01:54:09.328Z,6.10
2018-11-01T01:56:36.433Z,7.37
2018-11-01T01:59:04.556Z,7.57
2018-11-01T02:01:31.669Z,7.57
2018-11-01T02:03:58.757Z,6.90
2018-11-01T02:06:25.840Z,8.70
2018-11-01T02:08:52.915Z,6.27
2018-11-01T02:11:20.024Z,6.53
2018-11-01T02:13:47.148Z,9.37
2018-11-01T02:16:14.224Z,6.70
2018-11-01T02:18:41.357Z,6.27
2018-11-01T02:21:08.453Z,6.80
2018-11-01T02:23:35.543Z,6.80
2018-11-01T02:26:02.651Z,7.00
2018-11-01T02:28:29.757Z,6.43
2018-11-01T02:30:56.845Z,6.50
2018-11-01T02:33:23.956Z,6.90
2018-11-01T02:35:51.045Z,8.20
2018-11-01T02:38:18.155Z,6.67
2018-11-01T02:40:45.245Z,7.70
2018-11-01T02:43:12.337Z,6.27
2018-11-01T02:45:39.439Z,7.83
2018-11-01T02:48:06.531Z,7.20
2018-11-01T02:50:33.635Z,6.70
2018-11-01T02:53:00.724Z,7.20
2018-11-01T02:55:27.876Z,7.87
2018-11-01T02:57:54.979Z,7.47
2018-11-01T03:00:22.061Z,7.60
2018-11-01T03:02:49.154Z,6.40
2018-11-01T03:05:16.260Z,6.77
2018-11-01T03:07:43.352Z,7.67
2018-11-01T03:10:11.645Z,7.20
2018-11-01T03:12:39.050Z,6.43
2018-11-01T03:15:06.919Z,6.93
2018-11-01T03:17:34.016Z,9.90
2018-11-01T03:20:01.101Z,6.60
2018-11-01T03:22:28.193Z,7.00
2018-11-01T03:24:55.282Z,7.10
2018-11-01T03:27:22.371Z,6.93
2018-11-01T03:29:49.472Z,8.87
2018-11-01T03:32:16.574Z,6.73
2018-11-01T03:34:43.672Z,7.10
2018-11-01T03:37:10.821Z,6.93
2018-11-01T03:39:37.925Z,8.77
2018-11-01T03:42:05.144Z,7.57
2018-11-01T03:44:32.232Z,7.03
2018-11-01T03:46:59.317Z,6.80
2018-11-01T03:49:26.410Z,7.10
2018-11-01T03:51:53.639Z,6.90
2018-11-01T03:54:20.675Z,6.90
2018-11-01T03:56:47.766Z,9.73
2018-11-01T03:59:14.863Z,6.93
2018-11-01T04:01:42.048Z,6.63
2018-11-01T04:04:09.132Z,6.70
2018-11-01T04:06:36.276Z,8.17
2018-11-01T04:09:05.920Z,7.03
2018-11-01T04:11:33.007Z,7.40
2018-11-01T04:14:00.092Z,7.20
2018-11-01T04:16:27.188Z,7.20
2018-11-01T04:18:54.260Z,7.40
2018-11-01T04:21:21.359Z,8.83
2018-11-01T04:23:48.437Z,8.00
2018-11-01T04:26:15.508Z,7.20
2018-11-01T04:28:42.595Z,7.83
2018-11-01T04:31:09.668Z,7.23
2018-11-01T04:33:36.899Z,7.20
2018-11-01T04:36:04.348Z,7.47
2018-11-01T04:38:31.444Z,8.40
2018-11-01T04:40:58.532Z,8.80
2018-11-01T04:43:25.601Z,8.00
2018-11-01T04:45:52.672Z,9.37
2018-11-01T04:48:19.767Z,8.43
2018-11-01T04:50:46.875Z,8.30
2018-11-01T04:53:13.965Z,7.50
2018-11-01T04:55:41.059Z,7.37
2018-11-01T04:58:08.144Z,7.73
2018-11-01T05:00:35.228Z,8.07
2018-11-01T05:03:02.380Z,7.50
2018-11-01T05:05:29.460Z,7.50
2018-11-01T05:07:56.556Z,7.10
2018-11-01T05:10:23.644Z,6.90
2018-11-01T05:12:50.754Z,9.83
2018-11-01T05:15:17.905Z,7.50
2018-11-01T05:17:44.960Z,7.10
2018-11-01T05:20:12.327Z,9.87
2018-11-01T05:22:39.744Z,8.83
2018-11-01T05:25:07.413Z,7.87
2018-11-01T05:27:34.617Z,6.83
2018-11-01T05:30:01.768Z,7.60
2018-11-01T05:32:28.944Z,9.00
2018-11-01T05:34:56.024Z,6.80
2018-11-01T05:37:23.132Z,8.57
2018-11-01T05:39:50.241Z,8.20
2018-11-01T05:42:17.324Z,8.07
2018-11-01T05:44:44.416Z,7.03
2018-11-01T05:47:11.504Z,6.87
2018-11-01T05:49:38.572Z,6.93
2018-11-01T05:52:05.921Z,7.73
2018-11-01T05:54:32.992Z,7.60
2018-11-01T05:57:00.064Z,7.10
2018-11-01T05:59:27.168Z,7.13
2018-11-01T06:01:56.832Z,8.03
2018-11-01T06:04:23.924Z,8.77
2018-11-01T06:06:51.059Z,6.90
2018-11-01T06:09:23.832Z,8.90
2018-11-01T06:11:50.929Z,6.93
2018-11-01T06:14:18.016Z,7.83
2018-11-01T06:16:45.179Z,7.37
2018-11-01T06:19:12.786Z,8.33
2018-11-01T06:21:40.165Z,7.53
2018-11-01T06:24:07.276Z,8.10
2018-11-01T06:26:34.428Z,9.43
2018-11-01T06:29:01.545Z,7.20
2018-11-01T06:31:28.632Z,7.27
2018-11-01T06:33:55.760Z,8.60
2018-11-01T06:36:22.834Z,7.47
2018-11-01T06:38:49.918Z,6.47
2018-11-01T06:41:17.016Z,9.00
2018-11-01T06:43:44.124Z,7.77
2018-11-01T06:46:11.220Z,9.10
2018-11-01T06:48:38.417Z,7.10
2018-11-01T06:51:05.753Z,7.27
2018-11-01T06:53:32.836Z,7.47
2018-11-01T06:55:59.992Z,8.47
2018-11-01T06:58:27.336Z,7.00
2018-11-01T07:00:54.184Z,7.73
2018-11-01T07:03:21.273Z,6.63
2018-11-01T07:05:48.439Z,10.23
2018-11-01T07:08:15.491Z,6.77
2018-11-01T07:10:42.584Z,9.10
2018-11-01T07:13:09.664Z,8.27
2018-11-01T07:15:36.764Z,7.13
2018-11-01T07:18:03.996Z,6.87
2018-11-01T07:20:31.092Z,7.63
2018-11-01T07:22:58.182Z,8.63
2018-11-01T07:25:25.347Z,6.57
2018-11-01T07:27:52.396Z,6.73
2018-11-01T07:30:19.497Z,8.20
2018-11-01T07:32:46.733Z,9.43
2018-11-01T07:35:14.250Z,10.40
2018-11-01T07:37:41.604Z,6.77
2018-11-01T07:40:11.013Z,7.13
2018-11-01T07:42:38.464Z,6.37
2018-11-01T07:45:06.101Z,8.00
2018-11-01T07:47:33.216Z,7.53
2018-11-01T07:50:00.305Z,6.83
2018-11-01T07:52:27.413Z,7.83
2018-11-01T07:54:54.508Z,8.97
2018-11-01T07:57:21.608Z,7.27
2018-11-01T07:59:48.705Z,7.77
2018-11-01T08:02:15.804Z,11.47
2018-11-01T08:04:42.881Z,5.70
2018-11-01T08:07:09.964Z,6.73
2018-11-01T08:09:37.048Z,6.87
2018-11-01T08:12:04.191Z,7.20
2018-11-01T08:14:31.292Z,6.30
2018-11-01T08:16:58.373Z,5.60
2018-11-01T08:19:25.556Z,7.23
2018-11-01T08:21:52.571Z,6.17
2018-11-01T08:24:19.662Z,6.07
2018-11-01T08:26:46.779Z,5.50
2018-11-01T08:29:13.877Z,7.10
2018-11-01T08:31:40.976Z,7.23
2018-11-01T08:34:08.085Z,6.00
2018-11-01T08:36:35.175Z,7.40
2018-11-01T08:39:02.344Z,7.50
2018-11-01T08:41:29.420Z,6.67
2018-11-01T08:43:56.543Z,5.77
2018-11-01T08:46:23.644Z,5.00
2018-11-01T08:48:50.741Z,5.33
2018-11-01T08:51:17.832Z,5.57
2018-11-01T08:53:44.913Z,6.57
2018-11-01T08:56:12.081Z,6.30
2018-11-01T08:58:39.236Z,5.40
2018-11-01T09:01:06.340Z,4.50
2018-11-01T09:03:33.432Z,5.67
2018-11-01T09:06:00.520Z,5.57
2018-11-01T09:08:27.615Z,7.00
2018-11-01T09:10:54.732Z,7.03
2018-11-01T09:13:21.872Z,8.07
2018-11-01T09:15:48.917Z,5.50
2018-11-01T09:18:16.013Z,4.73
2018-11-01T09:20:43.236Z,6.13
2018-11-01T09:23:10.351Z,6.60
2018-11-01T09:25:37.457Z,7.67
2018-11-01T09:28:04.898Z,6.37
2018-11-01T09:30:32.001Z,7.57
2018-11-01T09:32:59.155Z,5.83
2018-11-01T09:35:26.251Z,5.13
2018-11-01T09:37:53.329Z,5.00
2018-11-01T09:40:20.420Z,7.83
2018-11-01T09:42:47.527Z,7.23
2018-11-01T09:45:14.633Z,4.50
2018-11-01T09:47:42.123Z,5.30
2018-11-01T09:50:09.664Z,5.60
2018-11-01T09:52:36.828Z,6.13
2018-11-01T09:55:04.099Z,8.40
2018-11-01T09:57:31.192Z,7.37
2018-11-01T09:59:58.317Z,5.50
2018-11-01T10:02:25.404Z,5.07
2018-11-01T10:04:52.497Z,3.17
2018-11-01T10:07:19.590Z,5.20
2018-11-01T10:09:46.689Z,4.47
2018-11-01T10:12:13.812Z,5.57
2018-11-01T10:14:40.966Z,4.10
2018-11-01T10:17:08.434Z,3.20
2018-11-01T10:19:35.266Z,5.27
2018-11-01T10:22:02.466Z,4.30
2018-11-01T10:24:29.518Z,3.33
2018-11-01T10:26:56.644Z,4.80
2018-11-01T10:29:23.740Z,4.00
2018-11-01T10:31:50.815Z,4.73
2018-11-01T10:34:17.908Z,3.70
2018-11-01T10:36:44.981Z,4.13
2018-11-01T10:39:12.093Z,4.63
2018-11-01T10:41:39.352Z,3.43
2018-11-01T10:44:06.428Z,5.87
2018-11-01T10:46:33.536Z,4.53
2018-11-01T10:49:00.633Z,2.87
2018-11-01T10:51:27.733Z,3.77
2018-11-01T10:53:54.921Z,4.10
2018-11-01T10:56:22.424Z,3.47
2018-11-01T10:58:49.611Z,3.03
2018-11-01T11:01:22.465Z,2.60
2018-11-01T11:03:49.649Z,3.17
2018-11-01T11:06:16.815Z,3.97
2018-11-01T11:08:43.868Z,3.03
2018-11-01T11:11:10.976Z,5.67
2018-11-01T11:13:38.296Z,2.70
2018-11-01T11:16:05.416Z,4.40
2018-11-01T11:18:32.653Z,5.00
2018-11-01T11:20:59.876Z,5.67
2018-11-01T11:23:26.822Z,3.65
2018-11-01T11:25:53.916Z,5.70
2018-11-01T11:28:21.036Z,2.90
2018-11-01T11:30:48.237Z,2.27
2018-11-01T11:33:15.244Z,3.55
2018-11-01T11:35:42.364Z,4.17
2018-11-01T11:38:09.444Z,5.23
2018-11-01T11:40:36.559Z,2.65
2018-11-01T11:43:03.665Z,2.33
2018-11-01T11:45:30.756Z,3.20
2018-11-01T11:47:57.856Z,5.70
2018-11-01T11:50:24.948Z,3.80
2018-11-01T11:52:52.061Z,3.00
2018-11-01T11:55:19.149Z,4.40
2018-11-01T11:57:46.253Z,3.53
2018-11-01T12:00:14.676Z,2.97
2018-11-01T12:02:42.124Z,3.25
2018-11-01T12:05:09.235Z,3.07
2018-11-01T12:07:36.622Z,3.37
2018-11-01T12:10:04.485Z,5.80
2018-11-01T12:12:31.570Z,3.60
2018-11-01T12:14:58.664Z,3.00
2018-11-01T12:17:25.792Z,3.43
2018-11-01T12:19:52.896Z,2.90
2018-11-01T12:22:20.040Z,2.73
2018-11-01T12:24:47.096Z,4.17
2018-11-01T12:27:14.191Z,3.10
2018-11-01T12:29:41.277Z,4.17
2018-11-01T12:32:08.389Z,3.27
2018-11-01T12:34:35.478Z,4.83
2018-11-01T12:37:02.618Z,3.73
2018-11-01T12:39:29.749Z,3.00
2018-11-01T12:41:56.840Z,4.87
2018-11-01T12:44:23.928Z,3.60
2018-11-01T12:46:51.016Z,4.67
2018-11-01T12:49:18.108Z,3.97
2018-11-01T12:51:45.212Z,2.87
2018-11-01T12:54:12.312Z,5.70
2018-11-01T12:56:39.421Z,3.37
2018-11-01T12:59:07.744Z,5.23
2018-11-01T13:01:34.836Z,3.30
2018-11-01T13:04:01.941Z,3.00
2018-11-01T13:06:29.045Z,2.40
2018-11-01T13:08:56.129Z,4.50
2018-11-01T13:11:23.229Z,2.93
2018-11-01T13:13:50.328Z,3.70
2018-11-01T13:16:17.436Z,4.83
2018-11-01T13:18:44.628Z,4.13
2018-11-01T13:21:11.724Z,4.07
2018-11-01T13:23:38.825Z,5.93
2018-11-01T13:26:05.932Z,4.07
2018-11-01T13:28:33.032Z,4.13
2018-11-01T13:31:00.109Z,3.93
2018-11-01T13:33:27.226Z,3.93
2018-11-01T13:35:54.323Z,4.37
2018-11-01T13:38:21.974Z,4.60
2018-11-01T13:40:49.541Z,7.47
2018-11-01T13:43:16.196Z,7.97
2018-11-01T13:45:43.309Z,6.00
2018-11-01T13:48:10.591Z,6.67
2018-11-01T13:50:37.527Z,9.87
2018-11-01T13:53:04.913Z,5.03
2018-11-01T13:55:32.001Z,7.53
2018-11-01T13:57:59.096Z,8.17
2018-11-01T14:00:26.237Z,7.03
2018-11-01T14:02:53.357Z,5.23
2018-11-01T14:05:20.437Z,5.13
2018-11-01T14:07:47.555Z,5.47
2018-11-01T14:10:15.410Z,4.37
2018-11-01T14:12:42.855Z,5.77
2018-11-01T14:15:10.856Z,5.83
2018-11-01T14:17:37.950Z,6.07
2018-11-01T14:20:06.581Z,4.50
2018-11-01T14:22:33.696Z,6.93
2018-11-01T14:25:00.797Z,5.27
2018-11-01T14:27:27.923Z,5.27
2018-11-01T14:29:55.040Z,5.43
2018-11-01T14:32:22.148Z,6.13
2018-11-01T14:34:49.264Z,7.83
2018-11-01T14:37:16.377Z,7.07
2018-11-01T14:39:43.471Z,5.30
2018-11-01T14:42:10.576Z,6.40
2018-11-01T14:44:37.824Z,8.27
2018-11-01T14:47:05.330Z,10.33
2018-11-01T14:49:32.535Z,7.27
2018-11-01T14:51:59.724Z,7.53
2018-11-01T14:54:27.902Z,7.50
2018-11-01T14:56:54.785Z,7.73
2018-11-01T14:59:21.963Z,6.33
2018-11-01T15:01:48.129Z,6.37
2018-11-01T15:04:15.216Z,8.57
2018-11-01T15:06:42.430Z,7.00
2018-11-01T15:09:10.851Z,7.77
2018-11-01T15:11:37.965Z,7.70
2018-11-01T15:14:05.097Z,6.73
2018-11-01T15:16:32.204Z,7.13
2018-11-01T15:18:59.373Z,9.23
2018-11-01T15:21:26.428Z,11.90
2018-11-01T15:23:53.541Z,17.67
2018-11-01T15:26:20.747Z,24.67
2018-11-01T15:28:47.750Z,29.60
2018-11-01T15:31:14.831Z,36.07
2018-11-01T15:33:42.921Z,42.03
2018-11-01T15:36:09.804Z,41.60
2018-11-01T15:38:36.934Z,45.67
2018-11-01T15:41:10.665Z,52.87
2018-11-01T15:43:37.779Z,58.80
2018-11-01T15:46:05.284Z,56.23
2018-11-01T15:48:32.530Z,58.00
2018-11-01T15:50:59.535Z,48.53
2018-11-01T15:53:26.699Z,46.67
2018-11-01T15:55:53.818Z,38.87
2018-11-01T15:58:20.937Z,43.27
2018-11-01T16:00:48.072Z,36.57
2018-11-01T16:03:15.197Z,44.73
2018-11-01T16:05:42.308Z,34.77
2018-11-01T16:08:09.397Z,41.67
2018-11-01T16:10:36.528Z,43.00
2018-11-01T16:13:03.850Z,36.00
2018-11-01T16:15:30.956Z,35.50
2018-11-01T16:17:58.060Z,26.33
2018-11-01T16:20:25.164Z,28.23
2018-11-01T16:22:52.276Z,23.40
2018-11-01T16:25:19.496Z,21.73
2018-11-01T16:27:46.639Z,26.73
2018-11-01T16:30:15.558Z,18.27
2018-11-01T16:32:42.761Z,17.63
2018-11-01T16:35:09.932Z,16.77
2018-11-01T16:37:37.044Z,14.40
2018-11-01T16:40:06.041Z,13.93
2018-11-01T16:42:33.297Z,12.27
2018-11-01T16:45:00.298Z,11.17
2018-11-01T16:47:27.341Z,11.07
2018-11-01T16:49:54.465Z,10.27
2018-11-01T16:52:21.570Z,10.43
2018-11-01T16:54:48.863Z,10.17
2018-11-01T16:57:15.976Z,11.77
2018-11-01T16:59:43.104Z,10.33
2018-11-01T17:02:10.213Z,11.13
2018-11-01T17:04:37.340Z,11.97
2018-11-01T17:07:05.388Z,12.03
2018-11-01T17:09:32.508Z,12.67
2018-11-01T17:11:59.601Z,11.80
2018-11-01T17:14:26.748Z,10.50
2018-11-01T17:16:53.876Z,10.67
2018-11-01T17:19:20.979Z,10.50
2018-11-01T17:21:48.113Z,11.03
2018-11-01T17:24:15.204Z,11.83
2018-11-01T17:26:42.320Z,11.73
2018-11-01T17:29:10.043Z,12.83
2018-11-01T17:31:37.164Z,12.47
2018-11-01T17:34:04.629Z,11.90
2018-11-01T17:36:31.700Z,13.20
2018-11-01T17:38:58.805Z,13.17
2018-11-01T17:41:25.929Z,12.63
2018-11-01T17:43:53.081Z,12.53
2018-11-01T17:46:20.157Z,11.53
2018-11-01T17:48:47.296Z,13.10
2018-11-01T17:51:14.593Z,14.93
2018-11-01T17:53:41.602Z,12.70
2018-11-01T17:56:08.725Z,14.07
2018-11-01T17:58:35.832Z,13.30
2018-11-01T18:01:03.305Z,14.73
2018-11-01T18:03:30.429Z,13.37
2018-11-01T18:05:57.536Z,13.77
2018-11-01T18:08:24.744Z,14.40
2018-11-01T18:10:51.736Z,16.83
2018-11-01T18:13:18.828Z,14.33
2018-11-01T18:15:45.937Z,13.47
2018-11-01T18:18:13.064Z,14.93
2018-11-01T18:20:40.177Z,13.57
2018-11-01T18:23:07.326Z,14.13
2018-11-01T18:25:38.991Z,14.30
2018-11-01T18:28:05.872Z,12.57
2018-11-01T18:30:32.974Z,14.73
2018-11-01T18:33:00.266Z,14.40
2018-11-01T18:35:27.180Z,15.20
2018-11-01T18:37:54.333Z,16.87
2018-11-01T18:40:21.372Z,15.83
2018-11-01T18:42:48.552Z,15.80
2018-11-01T18:45:15.700Z,13.97
2018-11-01T18:47:43.504Z,14.73
2018-11-01T18:50:12.407Z,14.33
2018-11-01T18:52:39.856Z,14.97
2018-11-01T18:55:07.853Z,13.13
2018-11-01T18:57:34.980Z,13.80
2018-11-01T19:00:02.178Z,15.17
2018-11-01T19:02:29.288Z,14.00
2018-11-01T19:04:56.393Z,12.73
2018-11-01T19:07:23.513Z,15.53
2018-11-01T19:09:50.600Z,15.50
2018-11-01T19:12:17.723Z,14.23
2018-11-01T19:14:44.829Z,13.57
2018-11-01T19:17:11.936Z,15.03
2018-11-01T19:19:39.078Z,14.90
2018-11-01T19:22:06.224Z,14.77
2018-11-01T19:24:33.379Z,14.50
2018-11-01T19:27:00.944Z,12.97
2018-11-01T19:29:27.877Z,14.00
2018-11-01T19:31:55.001Z,14.17
2018-11-01T19:34:22.305Z,13.83
2018-11-01T19:36:49.293Z,13.10
2018-11-01T19:39:16.389Z,13.80
2018-11-01T19:41:43.536Z,13.47
2018-11-01T19:44:10.689Z,13.80
2018-11-01T19:46:37.809Z,14.23
2018-11-01T19:49:04.913Z,14.47
2018-11-01T19:51:32.036Z,14.57
2018-11-01T19:53:59.206Z,16.37
2018-11-01T19:56:26.296Z,15.03
2018-11-01T19:58:53.393Z,13.87
2018-11-01T20:01:20.506Z,15.17
2018-11-01T20:03:47.601Z,15.70
2018-11-01T20:06:14.709Z,13.33
2018-11-01T20:08:41.832Z,14.17
2018-11-01T20:11:08.925Z,13.90
2018-11-01T20:13:36.033Z,13.90
2018-11-01T20:16:03.161Z,13.80
2018-11-01T20:18:30.441Z,13.63
2018-11-01T20:20:57.519Z,11.97
2018-11-01T20:23:24.637Z,12.63
2018-11-01T20:25:51.725Z,11.60
2018-11-01T20:28:18.849Z,11.20
2018-11-01T20:30:45.955Z,11.17
2018-11-01T20:33:13.053Z,10.07
2018-11-01T20:35:40.149Z,8.77
2018-11-01T20:38:07.380Z,9.53
2018-11-01T20:40:34.401Z,8.90
2018-11-01T20:43:01.525Z,9.07
2018-11-01T20:45:28.622Z,8.47
2018-11-01T20:47:55.744Z,8.53
2018-11-01T20:50:22.867Z,11.53
2018-11-01T20:52:49.937Z,7.60
2018-11-01T20:55:17.044Z,8.60
2018-11-01T20:57:44.246Z,10.57
2018-11-01T21:00:12.886Z,9.57
2018-11-01T21:02:40.341Z,8.77
2018-11-01T21:05:07.784Z,9.43
2018-11-01T21:07:34.809Z,9.97
2018-11-01T21:10:02.314Z,10.17
2018-11-01T21:12:29.408Z,10.40
2018-11-01T21:14:56.566Z,11.20
2018-11-01T21:17:23.680Z,11.40
2018-11-01T21:19:50.779Z,12.00
2018-11-01T21:22:17.899Z,11.53
2018-11-01T21:24:45.006Z,12.43
2018-11-01T21:27:12.120Z,11.40
2018-11-01T21:29:39.243Z,11.93
2018-11-01T21:32:07.165Z,13.90
2018-11-01T21:34:34.277Z,13.17
2018-11-01T21:37:01.393Z,14.23
2018-11-01T21:39:28.495Z,13.77
2018-11-01T21:41:55.738Z,14.27
2018-11-01T21:44:22.801Z,13.67
2018-11-01T21:46:49.900Z,13.70
2018-11-01T21:49:17.014Z,14.17
2018-11-01T21:51:44.160Z,13.40
2018-11-01T21:54:11.276Z,13.97
2018-11-01T21:56:38.397Z,14.30
2018-11-01T21:59:05.505Z,14.50
2018-11-01T22:01:32.593Z,14.27
2018-11-01T22:03:59.781Z,14.27
2018-11-01T22:06:26.869Z,14.60
2018-11-01T22:08:53.974Z,12.47
2018-11-01T22:11:21.091Z,13.83
2018-11-01T22:13:48.177Z,13.33
2018-11-01T22:16:15.261Z,14.73
2018-11-01T22:18:42.461Z,14.27
2018-11-01T22:21:09.580Z,16.27
2018-11-01T22:23:36.680Z,13.77
2018-11-01T22:26:03.793Z,13.00
2018-11-01T22:28:30.935Z,12.10
2018-11-01T22:30:57.994Z,12.57
2018-11-01T22:33:25.082Z,13.23
2018-11-01T22:35:52.184Z,13.03
2018-11-01T22:38:19.339Z,14.77
2018-11-01T22:40:46.417Z,13.27
2018-11-01T22:43:13.512Z,13.57
2018-11-01T22:45:40.624Z,13.07
2018-11-01T22:48:07.716Z,13.97
2018-11-01T22:50:34.824Z,15.07
2018-11-01T22:53:01.939Z,15.57
2018-11-01T22:55:29.041Z,14.57
2018-11-01T22:57:56.132Z,12.67
2018-11-01T23:00:23.270Z,14.70
2018-11-01T23:02:50.372Z,13.77
2018-11-01T23:05:17.540Z,14.37
2018-11-01T23:07:44.645Z,11.90
2018-11-01T23:10:13.169Z,14.10
2018-11-01T23:12:40.638Z,13.50
2018-11-01T23:15:08.773Z,12.50
2018-11-01T23:17:35.892Z,12.33
2018-11-01T23:20:03.064Z,12.20
2018-11-01T23:22:30.163Z,12.93
2018-11-01T23:24:57.276Z,11.47
2018-11-01T23:27:24.387Z,11.70
2018-11-01T23:29:51.478Z,9.80
2018-11-01T23:32:18.596Z,12.10
2018-11-01T23:34:45.908Z,11.50
2018-11-01T23:37:18.641Z,13.70
2018-11-01T23:39:51.526Z,10.47
2018-11-01T23:42:24.399Z,10.17
2018-11-01T23:44:57.137Z,10.77
2018-11-01T23:47:29.901Z,11.30
2018-11-01T23:50:01.617Z,12.10
2018-11-01T23:52:29.300Z,12.77
2018-11-01T23:54:56.388Z,12.53
2018-11-01T23:57:23.488Z,11.00
2018-11-01T23:59:50.578Z,10.77
